KAEX/AEX METAR and TAF weather

Enter ICAO airport designator
Station Type Date Time Source
KAEX METAR 2023/01/30 11:53 UTC NOAA

KAEX 301153Z 34003KT 7SM OVC008 14/13 A3010 RMK AO2 SLP195 70143 T01440133 10167 20133 51014


Station Type Date Time Source
KAEX Decoded METAR 2023/01/30 11:53 UTC NOAA

ALEXANDRIA INTERNATIONAL AIRPORT, LA, United States (KAEX) 31-33N 092-56W 27M
Jan 30, 2023 - 06:53 AM EST / 2023.01.30 1153 UTC
Wind: from the NNW (340 degrees) at 3 MPH (3 KT):0
Visibility: 7 mile(s):0
Sky conditions: overcast
Temperature: 57.9 F (14.4 C)
Dew Point: 55.9 F (13.3 C)
Relative Humidity: 93%
Pressure (altimeter): 30.1 in. Hg (1019 hPa)
Pressure tendency: 0.04 inches (1.4 hPa) higher than three hours ago
ob: KAEX 301153Z 34003KT 7SM OVC008 14/13 A3010 RMK AO2 SLP195 70143 T01440133 10167 20133 51014
cycle: 12

Station Type Date Time Source
KAEX TAF 2023/01/30 12:22 UTC NOAA

TAF KAEX 301120Z 3012/3112 35005KT 2SM BR FEW002 OVC010
FM301500 01006KT 4SM BR OVC006
FM310000 02006KT 4SM BR OVC003

Example: see airport list